createdAt,value
2017-12-06T00:00:11.153Z,47.63
2017-12-06T00:01:11.139Z,47.44
2017-12-06T00:02:11.125Z,47.82
2017-12-06T00:03:11.111Z,47.53
2017-12-06T00:04:11.096Z,47.63
2017-12-06T00:05:11.082Z,47.72
2017-12-06T00:06:11.067Z,47.63
2017-12-06T00:07:11.055Z,47.53
2017-12-06T00:08:11.040Z,47.44
2017-12-06T00:09:11.026Z,47.63
2017-12-06T00:10:11.013Z,48.30
2017-12-06T00:11:10.998Z,48.40
2017-12-06T00:12:10.983Z,48.28
2017-12-06T00:13:10.969Z,48.18
2017-12-06T00:14:10.963Z,48.18
2017-12-06T00:15:10.942Z,47.70
2017-12-06T00:16:10.927Z,47.82
2017-12-06T00:17:10.913Z,47.80
2017-12-06T00:18:10.899Z,47.99
2017-12-06T00:19:10.885Z,47.99
2017-12-06T00:20:10.870Z,48.02
2017-12-06T00:21:10.856Z,47.82
2017-12-06T00:22:10.843Z,47.82
2017-12-06T00:23:10.829Z,47.89
2017-12-06T00:24:10.813Z,47.80
2017-12-06T00:25:10.803Z,47.80
2017-12-06T00:26:10.785Z,47.80
2017-12-06T00:27:12.125Z,47.89
2017-12-06T00:28:10.756Z,47.70
2017-12-06T00:29:10.743Z,47.80
2017-12-06T00:30:10.729Z,47.80
2017-12-06T00:31:10.716Z,47.80
2017-12-06T00:32:10.699Z,47.80
2017-12-06T00:33:10.685Z,47.70
2017-12-06T00:34:10.671Z,48.18
2017-12-06T00:35:10.657Z,48.38
2017-12-06T00:36:10.642Z,48.28
2017-12-06T00:37:10.628Z,48.18
2017-12-06T00:38:10.614Z,48.08
2017-12-06T00:39:10.608Z,48.28
2017-12-06T00:40:10.590Z,48.28
2017-12-06T00:41:10.571Z,48.18
2017-12-06T00:42:10.564Z,48.28
2017-12-06T00:43:10.544Z,48.47
2017-12-06T00:44:10.530Z,48.47
2017-12-06T00:45:10.513Z,48.57
2017-12-06T00:46:10.553Z,48.38
2017-12-06T00:47:10.484Z,48.38
2017-12-06T00:48:10.470Z,48.38
2017-12-06T00:49:10.456Z,48.57
2017-12-06T00:50:10.442Z,48.57
2017-12-06T00:51:10.427Z,48.47
2017-12-06T00:52:10.412Z,48.57
2017-12-06T00:53:10.401Z,48.47
2017-12-06T00:54:10.384Z,48.38
2017-12-06T00:55:10.369Z,48.38
2017-12-06T00:56:10.407Z,48.28
2017-12-06T00:57:10.341Z,48.08
2017-12-06T00:58:10.326Z,48.28
2017-12-06T00:59:10.313Z,48.28
2017-12-06T01:00:10.300Z,48.47
2017-12-06T01:01:10.283Z,48.08
2017-12-06T01:02:10.269Z,48.76
2017-12-06T01:03:10.255Z,48.66
2017-12-06T01:04:10.240Z,48.76
2017-12-06T01:05:10.225Z,48.76
2017-12-06T01:06:10.211Z,48.47
2017-12-06T01:07:10.198Z,48.57
2017-12-06T01:08:10.182Z,48.76
2017-12-06T01:09:10.167Z,48.76
2017-12-06T01:10:10.154Z,48.76
2017-12-06T01:11:10.140Z,48.76
2017-12-06T01:12:10.125Z,48.57
2017-12-06T01:13:10.109Z,48.66
2017-12-06T01:14:10.096Z,48.76
2017-12-06T01:15:10.081Z,48.47
2017-12-06T01:16:10.066Z,48.47
2017-12-06T01:17:10.052Z,48.57
2017-12-06T01:18:10.038Z,48.57
2017-12-06T01:19:10.023Z,48.85
2017-12-06T01:20:10.008Z,48.47
2017-12-06T01:21:09.994Z,48.54
2017-12-06T01:22:09.987Z,48.83
2017-12-06T01:23:09.966Z,48.83
2017-12-06T01:24:09.950Z,48.83
2017-12-06T01:25:09.938Z,48.76
2017-12-06T01:26:09.922Z,48.64
2017-12-06T01:27:09.908Z,48.38
2017-12-06T01:28:12.296Z,48.66
2017-12-06T01:29:09.878Z,48.64
2017-12-06T01:30:09.864Z,48.83
2017-12-06T01:31:09.849Z,48.83
2017-12-06T01:32:09.880Z,48.64
2017-12-06T01:33:09.819Z,48.64
2017-12-06T01:34:09.805Z,48.74
2017-12-06T01:35:09.791Z,48.45
2017-12-06T01:36:09.776Z,48.38
2017-12-06T01:37:09.762Z,48.66
2017-12-06T01:38:09.747Z,48.38
2017-12-06T01:39:09.733Z,48.74
2017-12-06T01:40:09.720Z,48.76
2017-12-06T01:41:09.703Z,48.54
2017-12-06T01:42:09.689Z,48.74
2017-12-06T01:43:09.674Z,48.57
2017-12-06T01:44:09.659Z,48.83
2017-12-06T01:45:09.645Z,48.54
2017-12-06T01:46:09.630Z,48.54
2017-12-06T01:47:09.617Z,48.54
2017-12-06T01:48:09.604Z,48.64
2017-12-06T01:49:09.587Z,48.93
2017-12-06T01:50:09.572Z,49.02
2017-12-06T01:51:09.559Z,49.12
2017-12-06T01:52:09.542Z,48.83
2017-12-06T01:53:09.528Z,49.12
2017-12-06T01:54:09.512Z,48.93
2017-12-06T01:55:09.499Z,48.93
2017-12-06T01:56:09.484Z,48.83
2017-12-06T01:57:09.470Z,48.83
2017-12-06T01:58:09.455Z,49.12
2017-12-06T01:59:09.442Z,49.02
2017-12-06T02:00:09.427Z,49.02
2017-12-06T02:01:09.412Z,49.22
2017-12-06T02:02:09.397Z,49.12
2017-12-06T02:03:09.382Z,49.02
2017-12-06T02:04:09.367Z,49.22
2017-12-06T02:05:09.353Z,49.22
2017-12-06T02:06:09.391Z,49.22
2017-12-06T02:07:09.324Z,49.12
2017-12-06T02:08:09.309Z,49.22
2017-12-06T02:09:09.294Z,49.31
2017-12-06T02:10:09.278Z,49.41
2017-12-06T02:11:09.265Z,49.22
2017-12-06T02:12:09.250Z,49.69
2017-12-06T02:13:09.235Z,49.69
2017-12-06T02:14:09.224Z,49.41
2017-12-06T02:15:09.207Z,49.41
2017-12-06T02:16:09.191Z,49.41
2017-12-06T02:17:09.176Z,49.22
2017-12-06T02:18:09.162Z,49.69
2017-12-06T02:19:09.148Z,49.31
2017-12-06T02:20:09.134Z,49.12
2017-12-06T02:21:09.118Z,49.22
2017-12-06T02:22:09.104Z,49.31
2017-12-06T02:23:09.089Z,49.31
2017-12-06T02:24:09.076Z,49.12
2017-12-06T02:25:09.059Z,49.12
2017-12-06T02:26:09.046Z,49.31
2017-12-06T02:27:09.031Z,49.41
2017-12-06T02:28:09.014Z,49.22
2017-12-06T02:29:09.001Z,48.93
2017-12-06T02:30:08.987Z,49.41
2017-12-06T02:31:09.026Z,49.51
2017-12-06T02:32:08.956Z,49.41
2017-12-06T02:33:08.942Z,49.60
2017-12-06T02:34:08.928Z,49.51
2017-12-06T02:35:08.913Z,49.41
2017-12-06T02:36:08.903Z,49.31
2017-12-06T02:37:08.884Z,49.69
2017-12-06T02:38:08.869Z,49.51
2017-12-06T02:39:08.856Z,49.41
2017-12-06T02:40:08.838Z,49.60
2017-12-06T02:41:08.825Z,49.41
2017-12-06T02:42:08.813Z,49.41
2017-12-06T02:43:08.810Z,49.51
2017-12-06T02:44:08.780Z,49.51
2017-12-06T02:45:08.766Z,49.69
2017-12-06T02:46:08.750Z,49.60
2017-12-06T02:47:08.739Z,49.41
2017-12-06T02:48:08.721Z,49.51
2017-12-06T02:49:08.707Z,49.41
2017-12-06T02:50:08.693Z,49.79
2017-12-06T02:51:08.678Z,49.79
2017-12-06T02:52:08.668Z,49.69
2017-12-06T02:53:08.648Z,49.79
2017-12-06T02:54:08.636Z,49.60
2017-12-06T02:55:08.619Z,49.31
2017-12-06T02:56:08.605Z,48.83
2017-12-06T02:57:08.589Z,49.69
2017-12-06T02:58:08.574Z,49.69
2017-12-06T02:59:08.560Z,49.31
2017-12-06T03:00:08.544Z,49.02
2017-12-06T03:01:08.530Z,49.69
2017-12-06T03:02:08.515Z,49.02
2017-12-06T03:03:08.503Z,48.93
2017-12-06T03:04:08.485Z,48.93
2017-12-06T03:05:08.471Z,49.51
2017-12-06T03:06:08.456Z,48.93
2017-12-06T03:07:08.443Z,49.60
2017-12-06T03:08:08.428Z,49.02
2017-12-06T03:09:08.412Z,49.60
2017-12-06T03:10:08.397Z,49.22
2017-12-06T03:11:08.383Z,49.12
2017-12-06T03:12:08.367Z,49.60
2017-12-06T03:13:08.354Z,49.60
2017-12-06T03:14:08.338Z,49.67
2017-12-06T03:15:08.324Z,49.51
2017-12-06T03:16:08.307Z,49.51
2017-12-06T03:17:08.294Z,48.93
2017-12-06T03:18:08.285Z,49.12
2017-12-06T03:19:08.264Z,49.60
2017-12-06T03:20:08.249Z,49.48
2017-12-06T03:21:08.235Z,49.29
2017-12-06T03:22:08.220Z,49.31
2017-12-06T03:23:08.206Z,49.60
2017-12-06T03:24:08.190Z,49.60
2017-12-06T03:25:08.175Z,49.38
2017-12-06T03:26:08.160Z,49.60
2017-12-06T03:27:08.147Z,49.31
2017-12-06T03:28:08.138Z,49.51
2017-12-06T03:29:08.116Z,49.60
2017-12-06T03:30:08.102Z,49.60
2017-12-06T03:31:08.120Z,49.48
2017-12-06T03:32:08.071Z,49.41
2017-12-06T03:33:08.056Z,49.51
2017-12-06T03:34:08.042Z,49.31
2017-12-06T03:35:08.027Z,49.57
2017-12-06T03:36:08.012Z,49.29
2017-12-06T03:37:07.997Z,49.31
2017-12-06T03:38:07.982Z,49.60
2017-12-06T03:39:07.968Z,49.48
2017-12-06T03:40:07.952Z,49.48
2017-12-06T03:41:07.938Z,49.69
2017-12-06T03:42:07.923Z,49.29
2017-12-06T03:43:07.910Z,49.60
2017-12-06T03:44:07.893Z,49.29
2017-12-06T03:45:07.878Z,49.41
2017-12-06T03:46:07.864Z,48.90
2017-12-06T03:47:07.850Z,48.93
2017-12-06T03:48:07.834Z,49.12
2017-12-06T03:49:07.819Z,49.12
2017-12-06T03:50:07.804Z,49.89
2017-12-06T03:51:07.790Z,49.79
2017-12-06T03:52:07.774Z,49.51
2017-12-06T03:53:07.759Z,49.22
2017-12-06T03:54:07.744Z,49.41
2017-12-06T03:55:07.730Z,49.31
2017-12-06T03:56:07.715Z,48.93
2017-12-06T03:57:07.701Z,48.83
2017-12-06T03:58:07.686Z,48.45
2017-12-06T03:59:07.671Z,48.54
2017-12-06T04:00:07.656Z,48.35
2017-12-06T04:01:07.641Z,48.45
2017-12-06T04:02:07.626Z,48.45
2017-12-06T04:03:07.612Z,48.74
2017-12-06T04:04:07.596Z,48.64
2017-12-06T04:05:07.582Z,47.99
2017-12-06T04:06:07.568Z,48.16
2017-12-06T04:07:07.553Z,48.45
2017-12-06T04:08:07.538Z,48.45
2017-12-06T04:09:07.523Z,48.54
2017-12-06T04:10:07.509Z,48.38
2017-12-06T04:11:07.494Z,48.18
2017-12-06T04:12:07.479Z,48.35
2017-12-06T04:13:07.467Z,48.18
2017-12-06T04:14:07.450Z,48.18
2017-12-06T04:15:07.435Z,48.18
2017-12-06T04:16:07.419Z,48.28
2017-12-06T04:17:07.407Z,47.89
2017-12-06T04:18:07.391Z,47.99
2017-12-06T04:19:07.377Z,47.70
2017-12-06T04:20:07.361Z,48.28
2017-12-06T04:21:07.347Z,48.08
2017-12-06T04:22:07.333Z,47.99
2017-12-06T04:23:07.319Z,48.18
2017-12-06T04:24:07.304Z,48.38
2017-12-06T04:25:07.288Z,48.28
2017-12-06T04:26:07.274Z,48.08
2017-12-06T04:27:07.260Z,47.41
2017-12-06T04:28:07.245Z,47.51
2017-12-06T04:29:07.232Z,47.41
2017-12-06T04:30:07.216Z,47.70
2017-12-06T04:31:07.203Z,47.70
2017-12-06T04:32:07.187Z,47.51
2017-12-06T04:33:07.173Z,47.51
2017-12-06T04:34:07.159Z,47.70
2017-12-06T04:35:07.144Z,47.31
2017-12-06T04:36:07.129Z,47.61
2017-12-06T04:37:07.115Z,47.31
2017-12-06T04:38:07.101Z,47.41
2017-12-06T04:39:07.086Z,47.89
2017-12-06T04:40:07.072Z,47.80
2017-12-06T04:41:07.057Z,47.99
2017-12-06T04:42:07.043Z,47.80
2017-12-06T04:43:07.029Z,48.08
2017-12-06T04:44:07.016Z,47.89
2017-12-06T04:45:06.999Z,47.70
2017-12-06T04:46:06.985Z,48.08
2017-12-06T04:47:07.017Z,47.80
2017-12-06T04:48:06.957Z,48.11
2017-12-06T04:49:06.942Z,47.61
2017-12-06T04:50:06.928Z,48.11
2017-12-06T04:51:06.912Z,47.82
2017-12-06T04:52:06.899Z,47.80
2017-12-06T04:53:06.885Z,47.80
2017-12-06T04:54:06.873Z,48.02
2017-12-06T04:55:06.856Z,48.02
2017-12-06T04:56:06.841Z,47.99
2017-12-06T04:57:06.827Z,47.99
2017-12-06T04:58:06.813Z,47.72
2017-12-06T04:59:06.801Z,47.80
2017-12-06T05:00:06.784Z,48.08
2017-12-06T05:01:06.770Z,47.82
2017-12-06T05:02:06.756Z,47.82
2017-12-06T05:03:06.741Z,47.99
2017-12-06T05:04:06.727Z,47.89
2017-12-06T05:05:06.713Z,48.02
2017-12-06T05:06:06.698Z,47.92
2017-12-06T05:07:06.684Z,47.72
2017-12-06T05:08:06.670Z,47.89
2017-12-06T05:09:06.656Z,47.82
2017-12-06T05:10:06.642Z,48.02
2017-12-06T05:11:06.628Z,47.82
2017-12-06T05:12:06.613Z,48.11
2017-12-06T05:13:06.599Z,47.89
2017-12-06T05:14:06.585Z,47.70
2017-12-06T05:15:06.571Z,48.02
2017-12-06T05:16:06.556Z,47.82
2017-12-06T05:17:06.541Z,48.02
2017-12-06T05:18:06.528Z,47.92
2017-12-06T05:19:06.514Z,47.72
2017-12-06T05:20:06.498Z,48.02
2017-12-06T05:21:06.530Z,47.92
2017-12-06T05:22:06.470Z,48.21
2017-12-06T05:23:06.456Z,48.11
2017-12-06T05:24:06.442Z,48.49
2017-12-06T05:25:06.428Z,48.21
2017-12-06T05:26:06.414Z,48.21
2017-12-06T05:27:06.402Z,48.21
2017-12-06T05:28:06.385Z,47.92
2017-12-06T05:29:06.372Z,48.40
2017-12-06T05:30:06.357Z,48.59
2017-12-06T05:31:06.344Z,48.11
2017-12-06T05:32:06.328Z,48.11
2017-12-06T05:33:06.315Z,48.59
2017-12-06T05:34:06.301Z,48.79
2017-12-06T05:35:06.287Z,48.97
2017-12-06T05:36:06.272Z,48.79
2017-12-06T05:37:06.259Z,48.97
2017-12-06T05:38:06.245Z,48.88
2017-12-06T05:39:06.231Z,48.88
2017-12-06T05:40:06.216Z,48.97
2017-12-06T05:41:06.202Z,48.69
2017-12-06T05:42:06.188Z,48.88
2017-12-06T05:43:06.173Z,48.79
2017-12-06T05:44:06.160Z,48.69
2017-12-06T05:45:06.146Z,48.88
2017-12-06T05:46:06.132Z,48.88
2017-12-06T05:47:06.118Z,48.30
2017-12-06T05:48:06.103Z,48.49
2017-12-06T05:49:06.089Z,48.88
2017-12-06T05:50:06.076Z,48.59
2017-12-06T05:51:06.061Z,49.07
2017-12-06T05:52:06.047Z,48.59
2017-12-06T05:53:06.034Z,48.79
2017-12-06T05:54:06.020Z,48.79
2017-12-06T05:55:06.004Z,48.79
2017-12-06T05:56:05.991Z,48.69
2017-12-06T05:57:05.977Z,48.59
2017-12-06T05:58:05.963Z,48.88
2017-12-06T05:59:05.950Z,48.71
2017-12-06T06:00:05.935Z,48.33
2017-12-06T06:01:05.921Z,48.69
2017-12-06T06:02:05.906Z,48.71
2017-12-06T06:03:05.894Z,48.71
2017-12-06T06:04:05.878Z,48.69
2017-12-06T06:05:05.865Z,48.40
2017-12-06T06:06:05.856Z,48.33
2017-12-06T06:07:05.840Z,48.43
2017-12-06T06:08:05.823Z,48.61
2017-12-06T06:09:05.809Z,48.69
2017-12-06T06:10:05.796Z,48.71
2017-12-06T06:11:05.782Z,48.90
2017-12-06T06:12:05.767Z,48.81
2017-12-06T06:13:05.754Z,48.90
2017-12-06T06:15:05.726Z,49.00
2017-12-06T06:16:05.711Z,48.81
2017-12-06T06:17:05.697Z,48.90
2017-12-06T06:18:05.684Z,49.00
2017-12-06T06:19:05.673Z,49.00
2017-12-06T06:20:05.656Z,48.90
2017-12-06T06:21:05.642Z,48.81
2017-12-06T06:22:05.631Z,48.90
2017-12-06T06:23:05.615Z,48.81
2017-12-06T06:24:05.600Z,48.90
2017-12-06T06:25:05.586Z,48.52
2017-12-06T06:26:05.623Z,48.90
2017-12-06T06:27:05.559Z,48.71
2017-12-06T06:28:05.545Z,48.90
2017-12-06T06:29:05.531Z,49.00
2017-12-06T06:30:05.521Z,49.48
2017-12-06T06:31:05.512Z,49.68
2017-12-06T06:32:05.491Z,49.38
2017-12-06T06:33:05.475Z,49.68
2017-12-06T06:34:05.462Z,49.48
2017-12-06T06:35:05.449Z,49.48
2017-12-06T06:36:05.434Z,49.77
2017-12-06T06:37:05.420Z,49.96
2017-12-06T06:38:05.407Z,49.87
2017-12-06T06:39:05.393Z,49.68
2017-12-06T06:40:05.378Z,50.06
2017-12-06T06:41:05.365Z,50.45
2017-12-06T06:42:05.355Z,50.73
2017-12-06T06:43:05.338Z,50.35
2017-12-06T06:44:05.323Z,50.63
2017-12-06T06:45:05.310Z,50.35
2017-12-06T06:46:05.296Z,50.63
2017-12-06T06:47:05.283Z,50.63
2017-12-06T06:48:05.267Z,50.54
2017-12-06T06:49:05.255Z,50.63
2017-12-06T06:50:05.240Z,50.63
2017-12-06T06:51:05.229Z,50.35
2017-12-06T06:52:05.212Z,50.45
2017-12-06T06:53:05.199Z,50.45
2017-12-06T06:54:05.185Z,50.73
2017-12-06T06:55:05.171Z,50.45
2017-12-06T06:56:05.156Z,50.63
2017-12-06T06:57:05.143Z,50.35
2017-12-06T06:58:05.129Z,50.25
2017-12-06T06:59:05.116Z,50.45
2017-12-06T07:00:05.101Z,50.63
2017-12-06T07:01:05.088Z,50.35
2017-12-06T07:02:05.074Z,50.35
2017-12-06T07:03:05.060Z,50.45
2017-12-06T07:04:05.046Z,50.63
2017-12-06T07:05:05.032Z,50.45
2017-12-06T07:06:05.018Z,50.61
2017-12-06T07:07:05.005Z,50.83
2017-12-06T07:08:04.991Z,50.63
2017-12-06T07:09:04.977Z,50.42
2017-12-06T07:10:04.964Z,50.54
2017-12-06T07:11:04.950Z,50.73
2017-12-06T07:12:04.935Z,50.54
2017-12-06T07:13:04.922Z,50.83
2017-12-06T07:14:04.908Z,50.73
2017-12-06T07:15:04.894Z,50.13
2017-12-06T07:16:04.880Z,50.15
2017-12-06T07:17:04.866Z,50.35
2017-12-06T07:18:04.852Z,50.15
2017-12-06T07:19:04.838Z,50.06
2017-12-06T07:20:04.824Z,49.77
2017-12-06T07:21:04.809Z,49.77
2017-12-06T07:22:04.797Z,49.77
2017-12-06T07:23:04.783Z,50.06
2017-12-06T07:24:04.768Z,49.77
2017-12-06T07:25:04.755Z,50.06
2017-12-06T07:26:04.742Z,49.96
2017-12-06T07:27:04.728Z,49.68
2017-12-06T07:28:04.713Z,49.68
2017-12-06T07:29:04.707Z,49.58
2017-12-06T07:30:04.686Z,49.65
2017-12-06T07:31:04.672Z,49.87
2017-12-06T07:32:04.658Z,49.87
2017-12-06T07:33:04.644Z,49.65
2017-12-06T07:34:04.631Z,49.68
2017-12-06T07:35:04.617Z,49.77
2017-12-06T07:36:04.601Z,49.68
2017-12-06T07:37:04.589Z,49.68
2017-12-06T07:38:04.575Z,49.77
2017-12-06T07:39:04.561Z,49.96
2017-12-06T07:40:04.549Z,49.77
2017-12-06T07:41:04.533Z,49.87
2017-12-06T07:42:04.519Z,49.58
2017-12-06T07:43:04.506Z,49.68
2017-12-06T07:44:04.491Z,49.68
2017-12-06T07:45:04.482Z,49.48
2017-12-06T07:46:04.465Z,49.48
2017-12-06T07:47:04.451Z,49.48
2017-12-06T07:48:04.436Z,49.48
2017-12-06T07:49:04.423Z,49.77
2017-12-06T07:50:04.409Z,49.58
2017-12-06T07:51:04.395Z,49.48
2017-12-06T07:52:04.380Z,49.38
2017-12-06T07:53:04.367Z,49.48
2017-12-06T07:54:04.354Z,49.68
2017-12-06T07:55:04.340Z,49.58
2017-12-06T07:56:04.328Z,49.77
2017-12-06T07:57:04.311Z,49.77
2017-12-06T07:58:04.298Z,49.48
2017-12-06T07:59:04.284Z,49.58
2017-12-06T08:00:04.270Z,49.55
2017-12-06T08:01:04.256Z,49.48
2017-12-06T08:02:04.242Z,49.48
2017-12-06T08:03:04.229Z,49.68
2017-12-06T08:04:04.216Z,49.58
2017-12-06T08:05:04.201Z,49.10
2017-12-06T08:06:04.187Z,49.77
2017-12-06T08:07:04.173Z,49.77
2017-12-06T08:08:04.159Z,49.77
2017-12-06T08:09:04.145Z,49.38
2017-12-06T08:10:04.132Z,49.10
2017-12-06T08:11:04.118Z,49.65
2017-12-06T08:12:04.103Z,49.77
2017-12-06T08:13:04.089Z,48.90
2017-12-06T08:14:04.076Z,49.38
2017-12-06T08:15:04.062Z,49.29
2017-12-06T08:16:04.048Z,49.38
2017-12-06T08:17:04.034Z,49.77
2017-12-06T08:18:04.020Z,49.77
2017-12-06T08:19:04.007Z,49.48
2017-12-06T08:20:03.992Z,49.29
2017-12-06T08:21:03.978Z,49.38
2017-12-06T08:22:03.965Z,49.19
2017-12-06T08:23:03.953Z,49.19
2017-12-06T08:24:03.937Z,49.29
2017-12-06T08:25:03.926Z,49.48
2017-12-06T08:26:03.908Z,49.77
2017-12-06T08:27:03.896Z,49.48
2017-12-06T08:28:03.881Z,49.46
2017-12-06T08:29:03.867Z,49.29
2017-12-06T08:30:03.856Z,49.58
2017-12-06T08:31:03.840Z,49.19
2017-12-06T08:32:03.826Z,49.19
2017-12-06T08:33:03.812Z,49.19
2017-12-06T08:34:03.798Z,49.19
2017-12-06T08:35:03.792Z,48.90
2017-12-06T08:36:03.769Z,49.00
2017-12-06T08:37:03.756Z,49.10
2017-12-06T08:38:03.742Z,49.10
2017-12-06T08:39:03.739Z,49.10
2017-12-06T08:40:03.714Z,49.10
2017-12-06T08:41:03.701Z,49.10
2017-12-06T08:42:03.687Z,48.61
2017-12-06T08:43:03.676Z,48.61
2017-12-06T08:44:03.659Z,48.81
2017-12-06T08:45:03.645Z,48.81
2017-12-06T08:46:03.632Z,48.61
2017-12-06T08:47:03.618Z,49.00
2017-12-06T08:48:03.603Z,48.71
2017-12-06T08:49:03.590Z,48.81
2017-12-06T08:50:03.575Z,49.00
2017-12-06T08:51:03.563Z,48.52
2017-12-06T08:52:03.548Z,48.61
2017-12-06T08:53:03.534Z,49.00
2017-12-06T08:54:03.520Z,48.61
2017-12-06T08:55:03.507Z,48.43
2017-12-06T08:56:03.492Z,48.30
2017-12-06T08:57:03.481Z,48.71
2017-12-06T08:58:03.465Z,48.81
2017-12-06T08:59:03.451Z,48.90
2017-12-06T09:00:03.437Z,48.90
2017-12-06T09:01:03.424Z,49.00
2017-12-06T09:02:03.410Z,49.00
2017-12-06T09:03:03.396Z,48.43
2017-12-06T09:04:03.381Z,48.52
2017-12-06T09:05:03.370Z,48.61
2017-12-06T09:06:03.355Z,48.61
2017-12-06T09:07:03.339Z,48.61
2017-12-06T09:08:03.326Z,48.81
2017-12-06T09:09:03.312Z,48.81
2017-12-06T09:10:03.298Z,48.61
2017-12-06T09:11:03.284Z,48.81
2017-12-06T09:12:03.270Z,48.61
2017-12-06T09:13:03.256Z,48.81
2017-12-06T09:14:03.244Z,48.71
2017-12-06T09:15:03.234Z,48.61
2017-12-06T09:16:03.215Z,48.61
2017-12-06T09:17:03.200Z,48.13
2017-12-06T09:18:03.187Z,48.23
2017-12-06T09:19:03.173Z,48.13
2017-12-06T09:20:03.165Z,48.13
2017-12-06T09:21:03.145Z,48.23
2017-12-06T09:22:03.134Z,48.81
2017-12-06T09:23:03.118Z,48.13
2017-12-06T09:24:03.104Z,48.03
2017-12-06T09:25:03.090Z,48.13
2017-12-06T09:26:03.076Z,48.43
2017-12-06T09:27:03.063Z,48.52
2017-12-06T09:28:03.048Z,48.61
2017-12-06T09:29:03.034Z,48.61
2017-12-06T09:30:03.023Z,48.61
2017-12-06T09:31:03.007Z,48.52
2017-12-06T09:32:02.994Z,48.43
2017-12-06T09:33:02.979Z,48.61
2017-12-06T09:34:02.965Z,48.52
2017-12-06T09:35:02.952Z,48.52
2017-12-06T09:36:02.936Z,47.94
2017-12-06T09:37:02.924Z,48.23
2017-12-06T09:38:02.911Z,48.43
2017-12-06T09:39:02.896Z,47.85
2017-12-06T09:40:02.882Z,48.33
2017-12-06T09:41:02.867Z,48.23
2017-12-06T09:42:02.854Z,48.13
2017-12-06T09:43:02.841Z,48.23
2017-12-06T09:44:02.825Z,48.23
2017-12-06T09:45:02.811Z,48.33
2017-12-06T09:46:02.798Z,48.23
2017-12-06T09:47:02.785Z,48.13
2017-12-06T09:48:02.821Z,48.13
2017-12-06T09:49:02.757Z,48.23
2017-12-06T09:50:02.742Z,48.33
2017-12-06T09:51:02.729Z,47.94
2017-12-06T09:52:02.714Z,47.85
2017-12-06T09:53:02.701Z,47.85
2017-12-06T09:54:02.687Z,48.03
2017-12-06T09:55:02.677Z,47.85
2017-12-06T09:56:02.659Z,47.85
2017-12-06T09:57:02.648Z,48.13
2017-12-06T09:58:02.632Z,47.75
2017-12-06T09:59:02.618Z,47.94
2017-12-06T10:00:02.604Z,48.13
2017-12-06T10:01:02.597Z,48.13
2017-12-06T10:02:02.576Z,47.85
2017-12-06T10:03:02.563Z,47.85
2017-12-06T10:04:02.548Z,47.94
2017-12-06T10:05:02.535Z,47.75
2017-12-06T10:06:02.521Z,47.94
2017-12-06T10:07:02.507Z,48.03
2017-12-06T10:08:02.493Z,47.85
2017-12-06T10:09:02.479Z,48.23
2017-12-06T10:10:02.466Z,48.33
2017-12-06T10:11:02.452Z,48.13
2017-12-06T10:12:02.438Z,48.33
2017-12-06T10:13:02.424Z,48.23
2017-12-06T10:14:02.410Z,48.33
2017-12-06T10:15:02.397Z,48.33
2017-12-06T10:16:02.383Z,48.33
2017-12-06T10:17:02.369Z,48.03
2017-12-06T10:18:02.357Z,47.94
2017-12-06T10:19:02.341Z,47.56
2017-12-06T10:20:02.327Z,47.85
2017-12-06T10:21:02.313Z,47.94
2017-12-06T10:22:02.305Z,48.33
2017-12-06T10:23:02.286Z,47.94
2017-12-06T10:24:02.271Z,47.94
2017-12-06T10:25:02.257Z,47.85
2017-12-06T10:26:02.244Z,47.94
2017-12-06T10:27:02.230Z,47.94
2017-12-06T10:28:02.217Z,47.46
2017-12-06T10:29:02.202Z,47.85
2017-12-06T10:30:02.189Z,47.56
2017-12-06T10:31:02.175Z,47.56
2017-12-06T10:32:02.161Z,47.65
2017-12-06T10:33:02.150Z,47.65
2017-12-06T10:34:02.133Z,47.56
2017-12-06T10:35:02.120Z,47.75
2017-12-06T10:36:02.105Z,47.46
2017-12-06T10:37:02.091Z,47.17
2017-12-06T10:38:02.077Z,47.36
2017-12-06T10:39:02.064Z,47.65
2017-12-06T10:40:02.052Z,47.56
2017-12-06T10:41:02.036Z,47.56
2017-12-06T10:42:02.022Z,47.65
2017-12-06T10:43:02.009Z,47.65
2017-12-06T10:44:01.994Z,47.46
2017-12-06T10:45:01.981Z,47.46
2017-12-06T10:46:01.967Z,47.56
2017-12-06T10:47:01.954Z,47.56
2017-12-06T10:48:01.939Z,47.65
2017-12-06T10:49:01.925Z,47.36
2017-12-06T10:50:01.911Z,47.08
2017-12-06T10:51:01.901Z,47.08
2017-12-06T10:52:01.884Z,47.27
2017-12-06T10:53:01.871Z,47.27
2017-12-06T10:54:01.856Z,47.65
2017-12-06T10:55:01.843Z,47.36
2017-12-06T10:56:01.835Z,47.36
2017-12-06T10:57:01.815Z,47.36
2017-12-06T10:58:01.802Z,47.27
2017-12-06T10:59:01.787Z,47.17
2017-12-06T11:00:01.773Z,47.27
2017-12-06T11:01:01.760Z,47.56
2017-12-06T11:02:01.745Z,47.46
2017-12-06T11:03:01.731Z,47.65
2017-12-06T11:04:01.717Z,47.36
2017-12-06T11:05:01.704Z,47.56
2017-12-06T11:06:01.694Z,47.27
2017-12-06T11:07:01.677Z,47.17
2017-12-06T11:08:01.662Z,47.36
2017-12-06T11:09:01.648Z,47.36
2017-12-06T11:10:01.635Z,47.36
2017-12-06T11:11:01.621Z,47.27
2017-12-06T11:12:01.606Z,46.98
2017-12-06T11:13:01.593Z,47.27
2017-12-06T11:14:01.579Z,47.17
2017-12-06T11:15:01.569Z,47.17
2017-12-06T11:16:01.551Z,47.17
2017-12-06T11:17:01.537Z,47.17
2017-12-06T11:18:01.527Z,47.27
2017-12-06T11:19:01.512Z,47.17
2017-12-06T11:20:01.498Z,47.08
2017-12-06T11:21:01.482Z,47.17
2017-12-06T11:22:01.472Z,47.36
2017-12-06T11:23:01.454Z,47.17
2017-12-06T11:24:01.440Z,47.17
2017-12-06T11:25:01.433Z,47.36
2017-12-06T11:26:01.413Z,47.46
2017-12-06T11:27:01.399Z,47.17
2017-12-06T11:28:01.385Z,46.98
2017-12-06T11:29:01.371Z,46.78
2017-12-06T11:30:01.358Z,47.08
2017-12-06T11:31:01.344Z,46.98
2017-12-06T11:32:01.330Z,46.98
2017-12-06T11:33:01.317Z,46.88
2017-12-06T11:34:01.302Z,47.08
2017-12-06T11:35:01.329Z,47.17
2017-12-06T11:36:01.275Z,46.98
2017-12-06T11:37:01.260Z,46.98
2017-12-06T11:38:01.247Z,46.78
2017-12-06T11:39:01.234Z,47.08
2017-12-06T11:40:01.219Z,46.78
2017-12-06T11:41:01.206Z,47.08
2017-12-06T11:42:01.194Z,47.08
2017-12-06T11:43:01.178Z,46.98
2017-12-06T11:44:01.164Z,47.08
2017-12-06T11:45:01.150Z,47.08
2017-12-06T11:46:01.136Z,46.98
2017-12-06T11:47:01.123Z,47.08
2017-12-06T11:48:01.109Z,47.17
2017-12-06T11:49:01.095Z,46.88
2017-12-06T11:50:01.081Z,46.98
2017-12-06T11:51:01.067Z,46.98
2017-12-06T11:52:01.053Z,46.88
2017-12-06T11:53:01.043Z,46.98
2017-12-06T11:54:01.025Z,46.78
2017-12-06T11:55:01.013Z,46.59
2017-12-06T11:56:00.998Z,46.88
2017-12-06T11:57:00.984Z,46.78
2017-12-06T11:58:00.971Z,46.88
2017-12-06T11:59:00.957Z,46.50
2017-12-06T12:00:00.943Z,46.88
2017-12-06T12:01:00.929Z,46.69
2017-12-06T12:02:00.918Z,46.69
2017-12-06T12:03:00.905Z,46.69
2017-12-06T12:04:00.887Z,46.59
2017-12-06T12:05:00.872Z,47.08
2017-12-06T12:06:00.860Z,46.50
2017-12-06T12:07:00.846Z,46.40
2017-12-06T12:08:00.833Z,46.98
2017-12-06T12:09:00.818Z,46.78
2017-12-06T12:10:00.805Z,46.59
2017-12-06T12:11:00.791Z,46.50
2017-12-06T12:12:00.777Z,46.31
2017-12-06T12:13:00.763Z,46.40
2017-12-06T12:14:00.748Z,46.69
2017-12-06T12:15:00.738Z,46.50
2017-12-06T12:16:00.721Z,46.59
2017-12-06T12:17:00.708Z,46.59
2017-12-06T12:18:00.695Z,46.69
2017-12-06T12:19:00.681Z,46.40
2017-12-06T12:20:00.666Z,46.69
2017-12-06T12:21:00.657Z,46.50
2017-12-06T12:22:00.640Z,46.78
2017-12-06T12:23:00.626Z,46.69
2017-12-06T12:24:00.611Z,46.59
2017-12-06T12:25:00.596Z,46.69
2017-12-06T12:26:00.584Z,46.59
2017-12-06T12:27:00.570Z,46.59
2017-12-06T12:28:00.556Z,46.69
2017-12-06T12:29:00.543Z,46.69
2017-12-06T12:30:00.532Z,46.69
2017-12-06T12:31:00.515Z,46.59
2017-12-06T12:32:00.500Z,46.69
2017-12-06T12:33:00.488Z,46.40
2017-12-06T12:34:00.474Z,46.59
2017-12-06T12:35:00.461Z,46.59
2017-12-06T12:36:00.447Z,46.50
2017-12-06T12:37:00.432Z,46.31
2017-12-06T12:38:00.419Z,46.31
2017-12-06T12:39:00.405Z,46.31
2017-12-06T12:40:00.391Z,46.40
2017-12-06T12:41:00.377Z,46.50
2017-12-06T12:42:00.364Z,46.50
2017-12-06T12:43:00.356Z,46.69
2017-12-06T12:44:00.336Z,46.59
2017-12-06T12:45:00.322Z,46.50
2017-12-06T12:46:00.309Z,46.31
2017-12-06T12:47:00.295Z,46.40
2017-12-06T12:48:00.282Z,46.11
2017-12-06T12:49:00.268Z,46.88
2017-12-06T12:50:00.254Z,46.69
2017-12-06T12:51:00.240Z,46.78
2017-12-06T12:52:00.226Z,46.31
2017-12-06T12:53:00.212Z,46.40